Airfield :
LOGIN :

Register | Disclaimer

   EN    FR    IT 

 










Legend :    VFR   Marginal VFR   IFR   Intensive IFR   Very Intensive IFR
Visi :
Ceiling :
>= 8 km
>= 3000ft
5 to 8 km
1000 to 3000 ft
1500m to 5 km
500 to 1000 ft
800 to 1500m
200 to 500 ft
< 800m
< 200 ft
Symbols :   Thunderstorms  Fog  Heavy snow  Heavy precipitations  Wind > 20 kt
SIGMETs :     Misc.  Thunderstorms  Icing  Turbulence  Mountain Waves  Volcanic Ashes







- Airport Elevation : 622 ft
- IATA code : BRS
- Download approach charts


EGGD - Bristol Int.

CURRENT METAR :
  • 171450Z AUTO 27012KT 9999 FEW042 19/13 Q1014

EXPIRED METARs :
  • 171420Z AUTO 28010KT 240V310 9999 FEW030 SCT042 20/13 Q1014
  • 171350Z AUTO 27008KT 230V300 9999 FEW028 22/13 Q1014
  • 171320Z AUTO 24008KT 190V280 9999 SCT026 SCT032 BKN049 21/13 Q1014
  • 171250Z AUTO 25008KT 210V300 9999 SCT026 SCT040 21/13 Q1014
  • 171220Z AUTO 24007KT 200V290 9999 BKN023 20/13 Q1015

TAF TAF EGGD
Valid from the 17 at 12:00 until the 18 at 12:00 UTC


171104Z 1712/1812 27005KT 9999 FEW025
PROB30
TEMPO 1717/1721 8000 RA SHRA
TEMPO 1721/1807 6000 -RADZ BKN008
PROB30 1721/1805 20010KT
PROB30
TEMPO 1800/1807 2000 RADZ BR BKN001
ATIS : +44 1275 473 666
No reported NOTAMs for that airfield.



MET'MAP, your aeronautical weather chart ! - Copyright ORBIFLY December 2007 - Disclaimer

ORBIFLY MET'MAP TEAM :

Programming & Development : Alexandra Zaïnal
Concept & Development : Baudouin d'Aumeries
Co-Development & Prog : Marc-Olivier Méhu
Technical & hardware support : Manuel Goepfert

Contact : metmap@orbifly.com




SOURCES & CREDITS :

   NOAA